Auberry, CA

6:51 AM PDT on October 22, 2014 (GMT -0700)
South Forty Ranch | Change Station
CLOSE
Current Station
Personal Weather Station
Location: Tollhouse, CA
Elevation: 2077 ft
Nearby Weather Stations

Elev 2077 ft 36.99 °N, 119.37 °W | Updated 3 minutes ago

Clear
Clear
51.1 °F
Feels Like 51.1 °F
N
0.0
Wind Variable Wind from South
Gusts 0.0 mph

Today
High -- | Low -- °F
--% Chance of Precip.
Yesterday
High -- | Low -- °F
Precip. -- in
7:12 AM 6:11 PM
Waning Crescent, 2% visible
Pressure 30.03 in
Visibility 10.0 miles
Clouds Clear
Dew Point 43 °F
Humidity 73%
Rainfall 0.00 in
Snow Depth Not available.
UV 0 out of 12
Pollen 2.70 out of 12
Air Quality Not available.
Flu Activity Sporadic
METAR KFAT 221253Z 00000KT 10SM CLR 12/06 A3003 RMK AO2 SLP167 T01170061

More Conditions Fewer Conditions

Pressure 30.03 in
Visibility 10.0 miles
Clouds Clear
Dew Point 43 °F
Humidity 73%
Rainfall 0.00 in
Snow Depth Not available.
UV 0 out of 12
Pollen 2.70 out of 12
Air Quality Not available.
Flu Activity Sporadic
METAR KFAT 221253Z 00000KT 10SM CLR 12/06 A3003 RMK AO2 SLP167 T01170061

More Conditions Fewer Conditions

10-Day Weather Forecast

Almanac

Astronomy

Oct. 22, 2014 Rise Set
Actual Time 7:12 AM PDT 6:11 PM PDT
Civil Twilight 6:45 AM PDT 6:38 PM PDT
Nautical Twilight 6:15 AM PDT 7:08 PM PDT
Astronomical Twilight 5:45 AM PDT 7:38 PM PDT
Moon 6:00 AM PDT 5:40 PM PDT
Length of Visible Light 11h 52m
Length of Day
10h 59m
Tomorrow will be 2m 12s shorter.
Waning Crescent, 2% of the Moon is Illuminated
Today
Waning Crescent
Oct 23
New
Oct 30
First Quarter
Nov 6
Full
Nov 14
Last Quarter

Today's Extremes

State Highs State Lows

Community

WunderPhotos

Upload Photos

1,763,919 photos uploaded!

Nearby

Snow Depth

Station Depth Elevation
Virginia Lakes Ridge 0 in 9200 ft
Leavitt Lake 1 in 9400 ft
Sonora Pass 0 in 8800 ft
Leavitt Meadows 1 in 7200 ft
Summit Meadow 1 in 9122 ft

Earthquake Activity

City Distance Mag. Time & Date
Mammoth Lakes, California 46 miles 3.0 11:10 PM PDT
2014-10-20
Lone Pine, California 87 miles 2.6 5:26 AM PDT
2014-10-19
Dixon Lane-Meadow Creek, California 66 miles 2.6 5:32 PM PDT
2014-10-18
Minimum magnitude displayed is 2.5.

Coastal Water Temperatures

Place Temperature
No Stations Reporting

Nearby Weather Stations